Have a Safe July 4th! 

Flight Track Log - Related Links

Times and Time Zones

All times are in EDT time to prevent confusion due to time zone crossing. See the DAL268 flight status page for this flight to view local times or setup timezone preferences in your user account.

Time Position Orientation Groundspeed Altitude Reporting Facility
EDT Latitude Longitude Course Direction KTS MPH feet Rate Location/Type
Sat 12:09:22 AM 40.6370 -73.7800 North  Level FlightAware ADS-B
Sat 12:11:41 AM 40.6380 -73.7790 37° Northeast 2 2 78 Level FlightAware ADS-B
Sat 12:12:46 AM 40.6370 -73.7790 180° South 10 12 89 Level FlightAware ADS-B
Sat 12:13:46 AM 40.6360 -73.7790 180° South 96 Level FlightAware ADS-B
Sat 12:16:00 AM 40.5123 -73.4079 123° Southeast  Level FlightAware Approximate
Sat 12:17:00 AM 40.4615 -73.2406 105° East  Level FlightAware Approximate
Sat 12:18:00 AM 40.4034 -73.0745 119° Southeast  Level FlightAware Approximate
Sat 12:19:00 AM 40.4000 -72.8999 75° East  Level FlightAware Approximate
Sat 12:20:00 AM 40.4333 -72.7222 90° East  Level FlightAware Approximate
Sat 12:21:00 AM 40.4719 -72.5468 79° East  Level FlightAware Approximate
Sat 12:22:00 AM 40.5167 -72.3748 90° East  Level FlightAware Approximate
Sat 12:23:00 AM 40.5467 -72.1969 72° East  Level FlightAware Approximate
Sat 12:24:00 AM 40.5905 -72.0217 72° East  Level FlightAware Approximate
Sat 12:25:08 AM 40.6290 -73.7710 143° Southeast 15 17  Level FlightAware ADS-B
Sat 12:26:10 AM 40.6290 -73.7730 270° West 24 28 636 Level FlightAware ADS-B
Sat 12:26:50 AM 40.6380 -73.7940 299° West 1,200 Level FlightAware ADS-B
Sat 12:27:20 AM 40.6510 -73.8250 299° West 192 221 1,400 2,200 Climbing FlightAware ADS-B
Sat 12:27:50 AM 40.6430 -73.8590 253° West 216 249 2,200 1,474 Climbing FlightAware ADS-B
Sat 12:28:17 AM 40.6220 -73.8850 223° Southwest 241 277 2,800 1,256 Climbing FlightAware ADS-B
Sat 12:28:33 AM 40.6040 -73.8950 203° Southwest 259 298 3,100 1,250 Climbing FlightAware ADS-B
Sat 12:28:41 AM 40.5950 -73.8960 185° South 267 307 3,300 1,862 Climbing FlightAware ADS-B
Sat 12:29:02 AM 40.5690 -73.8870 165° South 285 328 4,000 2,364 Climbing FlightAware ADS-B
Sat 12:29:14 AM 40.5560 -73.8760 147° Southeast 287 330 4,600 2,087 Climbing FlightAware ADS-B
Sat 12:29:48 AM 40.5323 -73.8231 121° Southeast 305 351 5,600 1,882 Climbing FlightAware ADS-B
Sat 12:30:05 AM 40.5278 -73.7913 101° East 308 354 6,200 2,286 Climbing FlightAware ADS-B
Sat 12:30:09 AM 40.5277 -73.7836 91° East 319 367 6,400 2,571 Climbing FlightAware ADS-B
Sat 12:30:12 AM 40.5278 -73.7776 89° East 320 368 6,500 2,250 Climbing FlightAware ADS-B
Sat 12:30:17 AM 40.5282 -73.7679 87° East 324 373 6,700 2,308 Climbing FlightAware ADS-B
Sat 12:30:25 AM 40.5295 -73.7521 84° East 326 375 7,000 2,500 Climbing FlightAware ADS-B
Sat 12:30:41 AM 40.5341 -73.7206 79° East 331 381 7,700 2,455 Climbing FlightAware ADS-B
Sat 12:30:47 AM 40.5364 -73.7088 76° East 337 388 7,900 2,182 Climbing FlightAware ADS-B
Sat 12:31:03 AM 40.5433 -73.6770 74° East 342 394 8,500 2,250 Climbing FlightAware ADS-B
Sat 12:31:19 AM 40.5507 -73.6448 73° East 346 398 9,100 2,364 Climbing FlightAware ADS-B
Sat 12:31:36 AM 40.5584 -73.6103 74° East 350 403 9,800 2,375 Climbing FlightAware ADS-B
Sat 12:32:07 AM 40.5734 -73.5488 72° East 357 411 11,000 1,882 Climbing FlightAware ADS-B
Sat 12:32:27 AM 40.5831 -73.5040 74° East 372 428 11,400 828 Climbing FlightAware ADS-B
Sat 12:32:36 AM 40.5850 -73.4835 83° East 380 437 11,400  Level FlightAware ADS-B
Sat 12:32:42 AM 40.5851 -73.4695 89° East 387 445 11,400  Level FlightAware ADS-B
Sat 12:32:50 AM 40.5838 -73.4528 96° East 394 453 11,400  Level FlightAware ADS-B
Sat 12:33:00 AM 40.5795 -73.4269 102° East 402 463 11,400  Level FlightAware ADS-B
Sat 12:33:08 AM 40.5736 -73.4088 113° Southeast 403 464 11,400 316 Level FlightAware ADS-B
Sat 12:33:38 AM 40.5473 -73.3448 118° Southeast 401 461 11,600 1,455 Climbing FlightAware ADS-B
Sat 12:34:14 AM 40.5135 -73.2686 120° Southeast 405 466 13,000 2,364 Climbing FlightAware ADS-B
Sat 12:34:44 AM 40.4848 -73.2043 120° Southeast 411 473 14,200 2,361 Climbing FlightAware ADS-B
Sat 12:35:15 AM 40.4551 -73.1371 120° Southeast 417 480 15,400 2,226 Climbing FlightAware ADS-B
Sat 12:35:46 AM 40.4248 -73.0688 120° Southeast 422 486 16,500 2,192 Climbing FlightAware ADS-B
Sat 12:36:07 AM 40.4050 -73.0215 119° Southeast 427 491 17,300 2,069 Climbing FlightAware ADS-B
Sat 12:36:15 AM 40.4002 -73.0015 107° East 434 499 17,500 1,500 Climbing FlightAware ADS-B
Sat 12:36:23 AM 40.3971 -72.9805 101° East 439 505 17,700 1,765 Climbing FlightAware ADS-B
Sat 12:36:32 AM 40.3962 -72.9565 93° East 447 514 18,000 2,000 Climbing FlightAware ADS-B
Sat 12:36:41 AM 40.3979 -72.9347 84° East 453 521 18,300 1,320 Climbing FlightAware ADS-B
Sat 12:37:22 AM 40.4219 -72.8241 74° East 464 534 19,100 895 Climbing FlightAware ADS-B
Sat 12:38:35 AM 40.4670 -72.6260 73° East 476 548 20,000 1,184 Climbing FlightAware ADS-B
Sat 12:39:54 AM 40.5190 -72.4020 73° East 493 567 22,100 1,513 Climbing FlightAware ADS-B
Sat 12:40:34 AM 40.5620 -72.2960 62° Northeast 510 587 23,000 2,023 Climbing FlightAware ADS-B
Sat 12:41:20 AM 40.6190 -72.1790 57° Northeast 492 566 25,000 2,000 Climbing FlightAware ADS-B
Sat 12:41:52 AM 40.6602 -72.0950 57° Northeast 501 577 25,600 975 Climbing FlightAware ADS-B
Sat 12:42:40 AM 40.7213 -71.9703 57° Northeast 513 590 26,300 989 Climbing FlightAware ADS-B
Sat 12:43:23 AM 40.7770 -71.8550 57° Northeast 527 606 27,100 1,100 Climbing FlightAware ADS-B
Sat 12:43:40 AM 40.7999 -71.8091 57° Northeast 526 605 27,400 818 Climbing FlightAware ADS-B
Sat 12:44:51 AM 40.8940 -71.6160 57° Northeast 546 628 28,300 554 Climbing FlightAware ADS-B
Sat 12:45:50 AM 40.9690 -71.4620 57° Northeast 557 641 28,600 189 Climbing FlightAware ADS-B
Sat 12:46:26 AM 41.0120 -71.3740 57° Northeast 557 641 28,600 1,551 Level FlightAware ADS-B
Sat 12:47:19 AM 41.0940 -71.2020 58° Northeast 554 638 30,900 1,274 Climbing FlightAware ADS-B
Sat 12:48:19 AM 41.1770 -71.0260 58° Northeast 552 635 31,000 52 Climbing FlightAware ADS-B
Sat 12:49:14 AM 41.2550 -70.8640 57° Northeast 553 636 31,000  Level FlightAware ADS-B
Sat 12:49:54 AM 41.3110 -70.7450 58° Northeast 554 638 31,000  Level FlightAware ADS-B
Sat 12:50:34 AM 41.3560 -70.6500 58° Northeast 555 639 31,000  Level FlightAware ADS-B
Sat 12:51:23 AM 41.4120 -70.5290 58° Northeast 555 639 31,000  Level FlightAware ADS-B
Sat 12:54:09 AM 41.6510 -70.0140 58° Northeast 31,000  Level FlightAware ADS-B
Sat 12:54:59 AM 41.7160 -69.8710 59° Northeast 535 616 31,000  Level FlightAware ADS-B
Sat 12:56:00 AM 41.7940 -69.6990 59° Northeast 31,000  Level FlightAware ADS-B
Sat 12:56:40 AM 41.8420 -69.5900 59° Northeast 537 618 31,000  Level FlightAware ADS-B
Sat 12:57:40 AM 41.9150 -69.4290 59° Northeast 538 619 31,000  Level FlightAware ADS-B
Sat 12:58:36 AM 41.9950 -69.2500 59° Northeast 542 624 31,000  Level FlightAware ADS-B
Sat 12:59:20 AM 42.0490 -69.1260 60° Northeast 540 621 31,000  Level FlightAware ADS-B
Sat 01:00:00 AM 42.1040 -69.0020 59° Northeast 540 621 31,000  Level FlightAware ADS-B
Sat 01:00:40 AM 42.1530 -68.8920 59° Northeast 541 623 31,000  Level FlightAware ADS-B
Sat 01:01:20 AM 42.2060 -68.7700 60° Northeast 543 625 31,000  Level FlightAware ADS-B
Sat 01:02:20 AM 42.2820 -68.5950 60° Northeast 544 626 31,000  Level FlightAware ADS-B
Sat 01:03:18 AM 42.3480 -68.4460 59° Northeast 545 627 31,000  Level FlightAware ADS-B
Sat 01:04:10 AM 42.4200 -68.2780 60° Northeast 544 626 31,000  Level FlightAware ADS-B
Sat 01:04:50 AM 42.4700 -68.1630 59° Northeast 544 626 31,000  Level FlightAware ADS-B
Sat 01:06:13 AM 42.5750 -67.9169 59° Northeast 536 617 31,000  Level Boston Center
Sat 01:07:13 AM 42.6514 -67.7419 59° Northeast 536 617 31,000  Level Boston Center
Sat 01:08:13 AM 42.7250 -67.5608 61° Northeast 536 617 31,000  Level Boston Center
Sat 01:09:13 AM 42.8008 -67.3850 60° Northeast 541 623 31,000 -50 Level Boston Center
Sat 01:10:13 AM 42.8739 -67.2031 61° Northeast 546 628 30,900  Descending Boston Center
Sat 01:12:00 AM 43.0966 -67.0395 28° Northeast  Level FlightAware Approximate
Sat 01:19:00 AM 43.5911 -65.8513 62° Northeast  Level FlightAware Approximate
Sat 01:20:00 AM 43.6563 -65.6775 63° Northeast  Level FlightAware Approximate
Sat 01:21:00 AM 43.7212 -65.5032 63° Northeast  Level FlightAware Approximate
Sat 01:22:00 AM 43.7859 -65.3286 63° Northeast  Level FlightAware Approximate
Sat 01:23:00 AM 43.8503 -65.1535 63° Northeast  Level FlightAware Approximate
Sat 01:23:39 AM 43.8500 -64.7480 63° Northeast 550 633 31,000  Level FlightAware ADS-B
Sat 01:24:24 AM 43.9060 -64.6010 62° Northeast 550 633 31,000  Level FlightAware ADS-B
Sat 01:25:00 AM 43.9530 -64.4770 62° Northeast 549 632 31,000  Level FlightAware ADS-B
Sat 01:25:48 AM 44.0100 -64.3240 63° Northeast 547 629 31,000  Level FlightAware ADS-B
Sat 01:26:30 AM 44.0550 -64.2060 62° Northeast 545 627 31,000  Level FlightAware ADS-B
Sat 01:27:11 AM 44.1030 -64.0760 63° Northeast 542 624 31,000  Level FlightAware ADS-B
Sat 01:28:05 AM 44.1680 -63.9000 63° Northeast 541 623 31,000  Level FlightAware ADS-B
Sat 01:28:48 AM 44.2130 -63.7790 63° Northeast 540 621 31,000  Level FlightAware ADS-B
Sat 01:29:34 AM 44.2650 -63.6360 63° Northeast 543 625 31,000  Level FlightAware ADS-B
Sat 01:30:10 AM 44.3090 -63.5170 63° Northeast 547 629 31,000  Level FlightAware ADS-B
Sat 01:30:52 AM 44.3570 -63.3840 63° Northeast 550 633 31,000  Level FlightAware ADS-B
Sat 01:31:39 AM 44.4100 -63.2360 63° Northeast 550 633 31,000  Level FlightAware ADS-B
Sat 01:32:23 AM 44.4600 -63.0990 63° Northeast 550 633 31,000  Level FlightAware ADS-B
Sat 01:33:01 AM 44.5030 -62.9750 64° Northeast 549 632 31,000  Level FlightAware ADS-B
Sat 01:33:45 AM 44.5440 -62.8590 64° Northeast 550 633 31,000  Level FlightAware ADS-B
Sat 01:34:21 AM 44.5780 -62.7610 64° Northeast 550 633 31,000  Level FlightAware ADS-B
Sat 01:35:21 AM 44.6350 -62.5970 64° Northeast 550 633 31,000  Level FlightAware ADS-B
Sat 01:36:21 AM 44.6920 -62.4330 64° Northeast 550 633 31,000  Level FlightAware ADS-B
Sat 01:36:56 AM 44.7250 -62.3370 64° Northeast 550 633 31,000  Level FlightAware ADS-B
Sat 01:37:43 AM 44.7700 -62.2080 64° Northeast 550 633 31,000  Level FlightAware ADS-B
Sat 01:38:20 AM 44.8050 -62.1070 64° Northeast 550 633 31,000  Level FlightAware ADS-B
Sat 01:39:09 AM 44.8510 -61.9730 64° Northeast 550 633 31,000  Level FlightAware ADS-B
Sat 01:39:45 AM 44.8850 -61.8740 64° Northeast 550 633 31,000  Level FlightAware ADS-B
Sat 01:40:33 AM 44.9310 -61.7420 64° Northeast 550 633 31,000  Level FlightAware ADS-B
Sat 01:41:10 AM 44.9660 -61.6410 64° Northeast 550 633 31,000  Level FlightAware ADS-B
Sat 01:41:56 AM 45.0100 -61.5140 64° Northeast 550 633 31,000 1,412 Level FlightAware ADS-B
Sat 01:42:35 AM 45.1350 -61.1440 64° Northeast 540 621 33,000 1,446 Climbing FlightAware ADS-B
Sat 01:43:19 AM 45.1830 -61.0000 65° Northeast 538 619 33,000  Level FlightAware ADS-B
Sat 01:43:59 AM 45.2240 -60.8760 65° Northeast 536 617 33,000  Level FlightAware ADS-B
Sat 01:44:43 AM 45.2690 -60.7400 65° Northeast 532 612 33,000  Level FlightAware ADS-B
Sat 01:48:53 AM 45.5260 -59.9430 65° Northeast 529 609 33,000  Level FlightAware ADS-B
Sat 01:49:31 AM 45.5650 -59.8220 65° Northeast 529 609 33,000  Level FlightAware ADS-B
Sat 01:50:17 AM 45.6110 -59.6760 66° East 530 610 33,000  Level FlightAware ADS-B
Sat 01:50:57 AM 45.6510 -59.5480 66° East 532 612 33,000  Level FlightAware ADS-B
Sat 01:51:38 AM 45.6920 -59.4160 66° East 534 615 33,000  Level FlightAware ADS-B
Sat 01:52:22 AM 45.7360 -59.2770 66° East 536 617 33,000  Level FlightAware ADS-B
Sat 01:52:58 AM 45.7730 -59.1570 66° East 536 617 33,000  Level FlightAware ADS-B
Sat 01:53:44 AM 45.8190 -59.0070 66° East 536 617 33,000  Level FlightAware ADS-B
Sat 01:54:28 AM 45.8620 -58.8670 66° East 537 618 33,000  Level FlightAware ADS-B
Sat 01:55:10 AM 45.9040 -58.7300 66° East 538 619 33,000  Level FlightAware ADS-B
Sat 01:55:50 AM 45.9430 -58.5990 67° East 539 620 33,000  Level FlightAware ADS-B
Sat 01:56:32 AM 45.9860 -58.4580 66° East 538 619 33,000  Level FlightAware ADS-B
Sat 01:57:14 AM 46.0260 -58.3230 67° East 539 620 33,000  Level FlightAware ADS-B
Sat 01:57:58 AM 46.0700 -58.1740 67° East 540 621 33,000  Level FlightAware ADS-B
Sat 01:58:38 AM 46.1090 -58.0420 67° East 540 621 33,000  Level FlightAware ADS-B
Sat 01:59:27 AM 46.1520 -57.8960 67° East 540 621 33,000  Level FlightAware ADS-B
Sat 02:03:36 AM 46.3950 -57.0460 67° East 540 621 33,000  Level FlightAware ADS-B
Sat 02:04:17 AM 46.4290 -56.9170 69° East 541 623 33,000  Level FlightAware ADS-B
Sat 02:04:57 AM 46.4660 -56.7780 69° East 541 623 33,000  Level FlightAware ADS-B
Sat 02:05:52 AM 46.5140 -56.5920 69° East 541 623 33,000  Level FlightAware ADS-B
Sat 02:06:52 AM 46.5670 -56.3880 69° East 543 625 33,000  Level FlightAware ADS-B
Sat 02:07:17 AM 46.5890 -56.3060 69° East 543 625 33,000  Level FlightAware ADS-B
Sat 02:07:57 AM 46.6260 -56.1590 70° East 543 625 33,000  Level FlightAware ADS-B
Sat 02:08:42 AM 46.6650 -56.0080 69° East 543 625 33,000  Level FlightAware ADS-B
Sat 02:09:27 AM 46.7040 -55.8540 70° East 544 626 33,000  Level FlightAware ADS-B
Sat 02:10:02 AM 46.7340 -55.7330 70° East 544 626 33,000  Level FlightAware ADS-B
Sat 02:10:47 AM 46.7740 -55.5780 69° East 545 627 33,000  Level FlightAware ADS-B
Sat 02:11:32 AM 46.8120 -55.4230 70° East 545 627 33,000  Level FlightAware ADS-B
Sat 02:12:00 AM 46.8360 -55.3260 70° East 544 626 33,000  Level FlightAware ADS-B
Sat 02:12:40 AM 46.8710 -55.1850 70° East 544 626 33,000  Level FlightAware ADS-B
Sat 02:13:25 AM 46.9080 -55.0330 70° East 543 625 33,000  Level FlightAware ADS-B
Sat 02:14:05 AM 46.9420 -54.8940 70° East 544 626 33,000  Level FlightAware ADS-B
Sat 02:14:49 AM 46.9790 -54.7380 71° East 544 626 33,000  Level FlightAware ADS-B
Sat 02:15:29 AM 47.0120 -54.6020 70° East 545 627 33,000  Level FlightAware ADS-B
Sat 02:16:07 AM 47.0440 -54.4660 71° East 547 629 33,000  Level FlightAware ADS-B
Sat 02:16:55 AM 47.0830 -54.3020 71° East 547 629 33,000  Level FlightAware ADS-B
Sat 02:17:35 AM 47.1170 -54.1580 71° East 547 629 33,000  Level FlightAware ADS-B
Sat 02:18:19 AM 47.1530 -54.0040 71° East 545 627 33,000  Level FlightAware ADS-B
Sat 02:19:03 AM 47.1890 -53.8500 71° East 544 626 33,000  Level FlightAware ADS-B
Sat 02:19:45 AM 47.2220 -53.7030 72° East 545 627 33,000  Level FlightAware ADS-B
Sat 02:20:24 AM 47.2530 -53.5690 71° East 546 628 33,000  Level FlightAware ADS-B
Sat 02:21:03 AM 47.2840 -53.4320 72° East 546 628 33,000  Level FlightAware ADS-B
Sat 02:21:51 AM 47.3230 -53.2590 72° East 546 628 33,000  Level FlightAware ADS-B
Sat 02:22:31 AM 47.3540 -53.1210 72° East 547 629 33,000  Level FlightAware ADS-B
Sat 02:23:15 AM 47.3890 -52.9620 72° East 548 631 33,000  Level FlightAware ADS-B
Sat 02:23:55 AM 47.4210 -52.8200 72° East 548 631 33,000  Level FlightAware ADS-B
Sat 02:24:37 AM 47.4540 -52.6700 72° East 547 629 33,000  Level FlightAware ADS-B
Sat 02:25:18 AM 47.4850 -52.5250 72° East 547 629 33,000  Level FlightAware ADS-B
Sat 02:26:02 AM 47.5190 -52.3720 72° East 546 628 33,000  Level FlightAware ADS-B
Sat 02:26:44 AM 47.5510 -52.2190 73° East 546 628 33,000  Level FlightAware ADS-B
Sat 02:27:28 AM 47.5840 -52.0660 72° East 545 627 33,000  Level FlightAware ADS-B
Sat 02:28:08 AM 47.6150 -51.9200 72° East 545 627 33,000  Level FlightAware ADS-B
Sat 02:28:48 AM 47.6440 -51.7800 73° East 547 629 33,000  Level FlightAware ADS-B
Sat 02:29:32 AM 47.6770 -51.6230 73° East 546 628 33,000  Level FlightAware ADS-B
Sat 02:33:12 AM 47.8130 -50.9630 73° East 545 627 33,000  Level FlightAware ADS-B
Sat 02:33:48 AM 47.8350 -50.8530 73° East 545 627 33,000  Level FlightAware ADS-B
Sat 02:34:37 AM 47.8660 -50.7040 73° East 545 627 33,000  Level FlightAware ADS-B
Sat 02:35:14 AM 47.8890 -50.5900 73° East 545 627 33,000  Level FlightAware ADS-B
Sat 02:36:38 AM 47.9420 -50.3340 73° East 545 627 33,000  Level FlightAware ADS-B
Sat 02:37:39 AM 47.9800 -50.1470 73° East 545 627 33,000  Level FlightAware ADS-B
Sat 02:37:45 AM 48.0000 -50.0000 78° East 560 644 33,000  Level ETMS Enhanced Traffic Management System
Sat 02:38:16 AM 48.0030 -50.0340 73° East 545 627 33,000  Level FlightAware ADS-B
Sat 02:39:04 AM 48.0330 -49.8860 73° East 545 627 33,000  Level FlightAware ADS-B
Sat 02:39:08 AM 48.0500 -49.4833 78° East 550 633 33,000  Level Gander Center
Sat 02:39:38 AM 48.0550 -49.7820 72° East 545 627 33,000  Level FlightAware ADS-B
Sat 02:40:08 AM 48.0667 -49.2667 83° East 550 633 33,000  Level Gander Center
Sat 02:40:26 AM 48.0850 -49.6350 73° East 545 627 33,000  Level FlightAware ADS-B
Sat 02:41:08 AM 48.1167 -49.0333 72° East 550 633 33,000  Level Gander Center
Sat 02:42:08 AM 48.1333 -48.8333 83° East 550 633 33,000  Level Gander Center
Sat 02:43:08 AM 48.1667 -48.6000 78° East 550 633 33,000  Level Gander Center
Sat 02:44:08 AM 48.2000 -48.3833 77° East 550 633 33,000  Level Gander Center
Sat 02:45:08 AM 48.2167 -48.1500 84° East 550 633 33,000  Level Gander Center
Sat 02:46:08 AM 48.2500 -47.9167 78° East 550 633 33,000  Level Gander Center
Sat 02:47:08 AM 48.2833 -47.7000 77° East 550 633 33,000  Level Gander Center
Sat 02:49:08 AM 48.3500 -47.2500 77° East 550 633 33,000  Level Gander Center
Sat 02:51:00 AM 48.3977 -46.8561 80° East  Level FlightAware Approximate
Sat 02:58:00 AM 48.5647 -45.3725 80° East  Level FlightAware Approximate
Sat 02:59:00 AM 48.5869 -45.1598 81° East  Level FlightAware Approximate
Sat 03:00:00 AM 48.6088 -44.9468 81° East  Level FlightAware Approximate
Sat 03:01:00 AM 48.6302 -44.7337 81° East  Level FlightAware Approximate
Sat 03:02:00 AM 48.6511 -44.5204 81° East  Level FlightAware Approximate
Sat 03:03:00 AM 48.6717 -44.3069 82° East  Level FlightAware Approximate
Sat 03:04:00 AM 48.6919 -44.0933 82° East  Level FlightAware Approximate
Sat 03:05:00 AM 48.7117 -43.8795 82° East  Level FlightAware Approximate
Sat 03:06:00 AM 48.7311 -43.6655 82° East  Level FlightAware Approximate
Sat 03:07:00 AM 48.7501 -43.4513 82° East  Level FlightAware Approximate
Sat 03:08:00 AM 48.7687 -43.2370 82° East  Level FlightAware Approximate
Sat 03:09:00 AM 48.7869 -43.0226 83° East  Level FlightAware Approximate
Sat 03:10:00 AM 48.8047 -42.8080 83° East  Level FlightAware Approximate
Sat 03:11:00 AM 48.8221 -42.5932 83° East  Level FlightAware Approximate
Sat 03:12:00 AM 48.8391 -42.3783 83° East  Level FlightAware Approximate
Sat 03:13:00 AM 48.8557 -42.1632 83° East  Level FlightAware Approximate
Sat 03:14:00 AM 48.8719 -41.9480 83° East  Level FlightAware Approximate
Sat 03:15:00 AM 48.8877 -41.7327 84° East  Level FlightAware Approximate
Sat 03:16:00 AM 48.9031 -41.5172 84° East  Level FlightAware Approximate
Sat 03:17:00 AM 48.9181 -41.3016 84° East  Level FlightAware Approximate
Sat 03:18:00 AM 48.9327 -41.0859 84° East  Level FlightAware Approximate
Sat 03:19:00 AM 48.9469 -40.8700 84° East  Level FlightAware Approximate
Sat 03:20:00 AM 48.9607 -40.6540 84° East  Level FlightAware Approximate
Sat 03:21:00 AM 48.9741 -40.4380 85° East  Level FlightAware Approximate
Sat 03:22:00 AM 48.9871 -40.2217 85° East  Level FlightAware Approximate
Sat 03:23:00 AM 48.9997 -40.0054 85° East  Level FlightAware Approximate
Sat 03:23:00 AM 49.0000 -40.0000 86° East 536 617 33,000  Level ETMS Enhanced Traffic Management System
Sat 03:24:00 AM 49.0089 -39.7890 86° East  Level FlightAware Approximate
Sat 03:25:00 AM 49.0177 -39.5722 86° East  Level FlightAware Approximate
Sat 03:26:00 AM 49.0261 -39.3553 87° East  Level FlightAware Approximate
Sat 03:27:00 AM 49.0341 -39.1383 87° East  Level FlightAware Approximate
Sat 03:28:00 AM 49.0417 -38.9212 87° East  Level FlightAware Approximate
Sat 03:29:00 AM 49.0703 -37.9573 88° East 536 617 33,000  Level FlightAware Transoceanic
Sat 03:30:00 AM 49.0759 -37.7300 88° East 536 617 33,000  Level FlightAware Transoceanic
Sat 03:31:00 AM 49.0811 -37.5027 88° East 536 617 33,000  Level FlightAware Transoceanic
Sat 03:32:00 AM 49.0858 -37.2753 88° East 536 617 33,000  Level FlightAware Transoceanic
Sat 03:33:00 AM 49.0900 -37.0479 88° East 536 617 33,000  Level FlightAware Transoceanic
Sat 03:34:00 AM 49.0938 -36.8205 89° East 536 617 33,000  Level FlightAware Transoceanic
Sat 03:35:00 AM 49.0972 -36.5930 89° East 536 617 33,000  Level FlightAware Transoceanic
Sat 03:36:00 AM 49.1001 -36.3655 89° East 536 617 33,000  Level FlightAware Transoceanic
Sat 03:37:00 AM 49.1025 -36.1379 89° East 536 617 33,000  Level FlightAware Transoceanic
Sat 03:38:00 AM 49.1045 -35.9104 89° East 536 617 33,000  Level FlightAware Transoceanic
Sat 03:39:00 AM 49.1061 -35.6828 89° East 536 617 33,000  Level FlightAware Transoceanic
Sat 03:40:00 AM 49.1072 -35.4552 90° East 536 617 33,000  Level FlightAware Transoceanic
Sat 03:41:00 AM 49.1079 -35.2276 90° East 536 617 33,000  Level FlightAware Transoceanic
Sat 03:42:00 AM 49.1081 -35.0000 90° East 536 617 33,000  Level FlightAware Transoceanic
Sat 03:43:00 AM 49.1079 -34.7724 90° East 536 617 33,000  Level FlightAware Transoceanic
Sat 03:44:00 AM 49.1072 -34.5448 90° East 536 617 33,000  Level FlightAware Transoceanic
Sat 03:45:00 AM 49.1061 -34.3172 91° East 536 617 33,000  Level FlightAware Transoceanic
Sat 03:46:00 AM 49.1045 -34.0896 91° East 536 617 33,000  Level FlightAware Transoceanic
Sat 03:47:00 AM 49.1025 -33.8621 91° East 536 617 33,000  Level FlightAware Transoceanic
Sat 03:48:00 AM 49.1001 -33.6345 91° East 536 617 33,000  Level FlightAware Transoceanic
Sat 03:49:00 AM 49.0972 -33.4070 91° East 536 617 33,000  Level FlightAware Transoceanic
Sat 03:50:00 AM 49.0938 -33.1795 91° East 536 617 33,000  Level FlightAware Transoceanic
Sat 03:51:00 AM 49.0900 -32.9521 92° East 536 617 33,000  Level FlightAware Transoceanic
Sat 03:52:00 AM 49.0858 -32.7247 92° East 536 617 33,000  Level FlightAware Transoceanic
Sat 03:53:00 AM 49.0811 -32.4973 92° East 536 617 33,000  Level FlightAware Transoceanic
Sat 03:54:00 AM 49.0759 -32.2700 92° East 536 617 33,000  Level FlightAware Transoceanic
Sat 03:55:00 AM 49.0703 -32.0427 92° East 536 617 33,000  Level FlightAware Transoceanic
Sat 03:56:00 AM 49.0643 -31.8154 92° East 536 617 33,000  Level FlightAware Transoceanic
Sat 03:57:00 AM 49.0578 -31.5883 93° East 536 617 33,000  Level FlightAware Transoceanic
Sat 03:58:00 AM 49.0509 -31.3612 93° East 536 617 33,000  Level FlightAware Transoceanic
Sat 03:59:00 AM 49.0435 -31.1341 93° East 536 617 33,000  Level FlightAware Transoceanic
Sat 04:00:00 AM 49.0357 -30.9071 93° East 536 617 33,000  Level FlightAware Transoceanic
Sat 04:01:00 AM 49.0275 -30.6802 93° East 536 617 33,000  Level FlightAware Transoceanic
Sat 04:02:00 AM 49.0187 -30.4534 93° East 536 617 33,000  Level FlightAware Transoceanic
Sat 04:03:00 AM 49.0096 -30.2267 94° East 536 617 33,000  Level FlightAware Transoceanic
Sat 04:04:00 AM 49.0004 -30.0099 94° East  Level FlightAware Approximate
Sat 04:05:00 AM 48.9908 -29.7932 94° East  Level FlightAware Approximate
Sat 04:06:00 AM 49.0083 -29.8030 86° East  Level FlightAware Approximate
Sat 04:07:00 AM 49.0171 -29.5862 86° East  Level FlightAware Approximate
Sat 04:08:00 AM 49.0255 -29.3693 87° East  Level FlightAware Approximate
Sat 04:08:00 AM 49.0000 -30.0000 86° East 524 603 33,000  Level ETMS Enhanced Traffic Management System
Sat 04:09:00 AM 49.0334 -29.1523 87° East  Level FlightAware Approximate
Sat 04:10:00 AM 49.0410 -28.9356 87° East  Level FlightAware Approximate
Sat 04:11:00 AM 49.0481 -28.7188 87° East  Level FlightAware Approximate
Sat 04:12:00 AM 49.0548 -28.5020 87° East  Level FlightAware Approximate
Sat 04:13:00 AM 49.0612 -28.2852 87° East  Level FlightAware Approximate
Sat 04:14:00 AM 49.0747 -27.7806 88° East 524 603 33,000  Level FlightAware Transoceanic
Sat 04:15:00 AM 49.0798 -27.5583 88° East 524 603 33,000  Level FlightAware Transoceanic
Sat 04:16:00 AM 49.0846 -27.3360 88° East 524 603 33,000  Level FlightAware Transoceanic
Sat 04:17:00 AM 49.0888 -27.1136 88° East 524 603 33,000  Level FlightAware Transoceanic
Sat 04:18:00 AM 49.0927 -26.8912 89° East 524 603 33,000  Level FlightAware Transoceanic
Sat 04:19:00 AM 49.0961 -26.6688 89° East 524 603 33,000  Level FlightAware Transoceanic
Sat 04:20:00 AM 49.0991 -26.4464 89° East 524 603 33,000  Level FlightAware Transoceanic
Sat 04:21:00 AM 49.1017 -26.2239 89° East 524 603 33,000  Level FlightAware Transoceanic
Sat 04:22:00 AM 49.1038 -26.0014 89° East 524 603 33,000  Level FlightAware Transoceanic
Sat 04:23:00 AM 49.1055 -25.7789 89° East 524 603 33,000  Level FlightAware Transoceanic
Sat 04:24:00 AM 49.1068 -25.5564 90° East 524 603 33,000  Level FlightAware Transoceanic
Sat 04:25:00 AM 49.1077 -25.3338 90° East 524 603 33,000  Level FlightAware Transoceanic
Sat 04:26:00 AM 49.1081 -25.1113 90° East 524 603 33,000  Level FlightAware Transoceanic
Sat 04:27:00 AM 49.1081 -24.8887 90° East 524 603 33,000  Level FlightAware Transoceanic
Sat 04:28:00 AM 49.1077 -24.6662 90° East 524 603 33,000  Level FlightAware Transoceanic
Sat 04:29:00 AM 49.1068 -24.4436 90° East 524 603 33,000  Level FlightAware Transoceanic
Sat 04:30:00 AM 49.1055 -24.2211 91° East 524 603 33,000  Level FlightAware Transoceanic
Sat 04:31:00 AM 49.1038 -23.9986 91° East 524 603 33,000  Level FlightAware Transoceanic
Sat 04:32:00 AM 49.1017 -23.7761 91° East 524 603 33,000  Level FlightAware Transoceanic
Sat 04:33:00 AM 49.0991 -23.5536 91° East 524 603 33,000  Level FlightAware Transoceanic
Sat 04:34:00 AM 49.0961 -23.3312 91° East 524 603 33,000  Level FlightAware Transoceanic
Sat 04:35:00 AM 49.0927 -23.1088 91° East 524 603 33,000  Level FlightAware Transoceanic
Sat 04:36:00 AM 49.0888 -22.8864 92° East 524 603 33,000  Level FlightAware Transoceanic
Sat 04:37:00 AM 49.0846 -22.6640 92° East 524 603 33,000  Level FlightAware Transoceanic
Sat 04:38:00 AM 49.0798 -22.4417 92° East 524 603 33,000  Level FlightAware Transoceanic
Sat 04:39:00 AM 49.0747 -22.2194 92° East 524 603 33,000  Level FlightAware Transoceanic
Sat 04:40:00 AM 49.0692 -21.9972 92° East 524 603 33,000  Level FlightAware Transoceanic
Sat 04:41:00 AM 49.0632 -21.7750 92° East 524 603 33,000  Level FlightAware Transoceanic
Sat 04:42:00 AM 49.0568 -21.5529 93° East 524 603 33,000  Level FlightAware Transoceanic
Sat 04:43:00 AM 49.0499 -21.3309 93° East 524 603 33,000  Level FlightAware Transoceanic
Sat 04:44:00 AM 49.0427 -21.1089 93° East 524 603 33,000  Level FlightAware Transoceanic
Sat 04:45:00 AM 49.0350 -20.8870 93° East 524 603 33,000  Level FlightAware Transoceanic
Sat 04:46:00 AM 49.0269 -20.6651 93° East 524 603 33,000  Level FlightAware Transoceanic
Sat 04:47:00 AM 49.0183 -20.4433 93° East 524 603 33,000  Level FlightAware Transoceanic
Sat 04:48:00 AM 49.0094 -20.2216 94° East 524 603 33,000  Level FlightAware Transoceanic
Sat 04:49:00 AM 49.0002 -20.0052 94° East  Level FlightAware Approximate
Sat 04:50:00 AM 48.9905 -19.7889 94° East  Level FlightAware Approximate
Sat 04:51:00 AM 48.9650 -19.8007 105° East  Level FlightAware Approximate
Sat 04:52:00 AM 48.9278 -19.5917 105° East  Level FlightAware Approximate
Sat 04:53:00 AM 48.8903 -19.3829 105° East  Level FlightAware Approximate
Sat 04:54:00 AM 48.8524 -19.1745 105° East  Level FlightAware Approximate
Sat 04:55:00 AM 48.8141 -18.9663 106° East  Level FlightAware Approximate
Sat 04:56:00 AM 48.7755 -18.7585 106° East  Level FlightAware Approximate
Sat 04:57:00 AM 48.7364 -18.5510 106° East  Level FlightAware Approximate
Sat 04:58:00 AM 48.6970 -18.3439 106° East  Level FlightAware Approximate
Sat 04:59:00 AM 48.6572 -18.1370 106° East  Level FlightAware Approximate
Sat 05:00:00 AM 48.6171 -17.9305 106° East  Level FlightAware Approximate
Sat 05:01:00 AM 48.5766 -17.7243 106° East  Level FlightAware Approximate
Sat 05:02:00 AM 48.5357 -17.5185 107° East  Level FlightAware Approximate
Sat 05:03:00 AM 48.4945 -17.3130 107° East  Level FlightAware Approximate
Sat 05:04:00 AM 48.4529 -17.1078 107° East  Level FlightAware Approximate
Sat 05:05:00 AM 48.4109 -16.9030 107° East  Level FlightAware Approximate
Sat 05:06:00 AM 48.3685 -16.6985 107° East  Level FlightAware Approximate
Sat 05:07:00 AM 48.3258 -16.4943 107° East  Level FlightAware Approximate
Sat 05:08:00 AM 48.2828 -16.2905 108° East  Level FlightAware Approximate
Sat 05:09:00 AM 48.2393 -16.0870 108° East  Level FlightAware Approximate
Sat 05:10:00 AM 48.1956 -15.8839 108° East  Level FlightAware Approximate
Sat 05:11:00 AM 48.1514 -15.6811 108° East  Level FlightAware Approximate
Sat 05:12:00 AM 48.1069 -15.4787 108° East  Level FlightAware Approximate
Sat 05:13:00 AM 48.0621 -15.2766 108° East  Level FlightAware Approximate
Sat 05:14:00 AM 48.0169 -15.0749 108° East  Level FlightAware Approximate
Sat 05:15:00 AM 47.9829 -14.8689 101° East  Level FlightAware Approximate
Sat 05:16:00 AM 47.9553 -14.6605 101° East  Level FlightAware Approximate
Sat 05:17:00 AM 47.9273 -14.4522 101° East  Level FlightAware Approximate
Sat 05:18:00 AM 47.8990 -14.2443 101° East  Level FlightAware Approximate
Sat 05:19:00 AM 47.8703 -14.0365 102° East  Level FlightAware Approximate
Sat 05:20:00 AM 47.8412 -13.8290 102° East  Level FlightAware Approximate
Sat 05:21:00 AM 47.8117 -13.6217 102° East  Level FlightAware Approximate
Sat 05:22:00 AM 47.7819 -13.4147 102° East  Level FlightAware Approximate
Sat 05:23:00 AM 47.7517 -13.2079 102° East  Level FlightAware Approximate
Sat 05:24:00 AM 47.7211 -13.0013 102° East  Level FlightAware Approximate
Sat 05:25:00 AM 47.6902 -12.7950 102° East  Level FlightAware Approximate
Sat 05:26:00 AM 47.6589 -12.5889 103° East  Level FlightAware Approximate
Sat 05:27:00 AM 47.6272 -12.3831 103° East  Level FlightAware Approximate
Sat 05:28:00 AM 47.5951 -12.1775 103° East  Level FlightAware Approximate
Sat 05:29:00 AM 47.5627 -11.9722 103° East  Level FlightAware Approximate
Sat 05:30:00 AM 47.5299 -11.7671 103° East  Level FlightAware Approximate
Sat 05:31:00 AM 47.4968 -11.5623 103° East  Level FlightAware Approximate
Sat 05:32:00 AM 47.4633 -11.3577 104° East  Level FlightAware Approximate
Sat 05:33:00 AM 47.4294 -11.1534 104° East  Level FlightAware Approximate
Sat 05:34:00 AM 47.3952 -10.9494 104° East  Level FlightAware Approximate
Sat 05:35:00 AM 47.3606 -10.7457 104° East  Level FlightAware Approximate
Sat 05:36:00 AM 47.3256 -10.5422 104° East  Level FlightAware Approximate
Sat 05:37:00 AM 47.2903 -10.3389 104° East  Level FlightAware Approximate
Sat 05:38:00 AM 47.2546 -10.1360 104° East  Level FlightAware Approximate
Sat 05:39:00 AM 47.2186 -9.9333 105° East  Level FlightAware Approximate
Sat 05:40:00 AM 47.1822 -9.7309 105° East  Level FlightAware Approximate
Sat 05:41:00 AM 47.1454 -9.5288 105° East  Level FlightAware Approximate
Sat 05:42:00 AM 47.1083 -9.3270 105° East  Level FlightAware Approximate
Sat 05:43:00 AM 47.0709 -9.1254 105° East  Level FlightAware Approximate
Sat 05:44:00 AM 47.0331 -8.9241 105° East  Level FlightAware Approximate
Sat 05:45:00 AM 47.0001 -8.7221 90° East  Level FlightAware Approximate
Sat 05:46:00 AM 47.0005 -8.5136 90° East  Level FlightAware Approximate
Sat 05:47:00 AM 47.0006 -8.3053 90° East  Level FlightAware Approximate
Sat 05:48:00 AM 47.0003 -8.0971 90° East  Level FlightAware Approximate
Sat 05:49:00 AM 46.9901 -7.8899 97° East  Level FlightAware Approximate
Sat 05:50:00 AM 46.9712 -7.6836 98° East  Level FlightAware Approximate
Sat 05:51:00 AM 46.9519 -7.4774 98° East  Level FlightAware Approximate
Sat 05:52:00 AM 46.9323 -7.2714 98° East  Level FlightAware Approximate
Sat 05:53:00 AM 46.9123 -7.0656 98° East  Level FlightAware Approximate
Sat 05:54:00 AM 46.8919 -6.8599 98° East  Level FlightAware Approximate
Sat 05:55:00 AM 46.8712 -6.6543 98° East  Level FlightAware Approximate
Sat 05:56:00 AM 46.8501 -6.4490 98° East  Level FlightAware Approximate
Sat 05:57:00 AM 46.8286 -6.2438 99° East  Level FlightAware Approximate
Sat 05:58:00 AM 46.8068 -6.0387 99° East  Level FlightAware Approximate
Sat 05:59:00 AM 46.7845 -5.8338 99° East  Level FlightAware Approximate
Sat 06:00:00 AM 46.7620 -5.6291 99° East  Level FlightAware Approximate
Sat 06:01:00 AM 46.7390 -5.4246 99° East  Level FlightAware Approximate
Sat 06:02:00 AM 46.7157 -5.2202 99° East  Level FlightAware Approximate
Sat 06:03:00 AM 46.6921 -5.0160 100° East  Level FlightAware Approximate
Sat 06:04:00 AM 46.6680 -4.8120 100° East  Level FlightAware Approximate
Sat 06:05:00 AM 46.6437 -4.6082 100° East  Level FlightAware Approximate
Sat 06:06:00 AM 46.6189 -4.4046 100° East  Level FlightAware Approximate
Sat 06:07:00 AM 46.5938 -4.2011 100° East  Level FlightAware Approximate
Sat 06:08:00 AM 46.5683 -3.9979 100° East  Level FlightAware Approximate
Sat 06:09:00 AM 46.5425 -3.7948 100° East  Level FlightAware Approximate
Sat 06:10:00 AM 46.5163 -3.5920 101° East  Level FlightAware Approximate
Sat 06:11:00 AM 46.4898 -3.3893 101° East  Level FlightAware Approximate
Sat 06:12:00 AM 46.4628 -3.1868 101° East  Level FlightAware Approximate
Sat 06:13:00 AM 46.4356 -2.9845 101° East  Level FlightAware Approximate
Sat 06:14:00 AM 46.4080 -2.7825 101° East  Level FlightAware Approximate
Sat 06:15:00 AM 46.3800 -2.5806 101° East  Level FlightAware Approximate
Sat 06:16:00 AM 46.3517 -2.3790 101° East  Level FlightAware Approximate
Sat 06:17:00 AM 46.3226 -2.1776 102° East  Level FlightAware Approximate
Sat 06:18:00 AM 46.2926 -1.9767 102° East  Level FlightAware Approximate
Sat 06:19:00 AM 46.2623 -1.7760 102° East  Level FlightAware Approximate
Sat 06:20:00 AM 46.2316 -1.5755 102° East  Level FlightAware Approximate
Sat 06:21:00 AM 46.2006 -1.3752 103° East  Level FlightAware Approximate
Sat 06:22:00 AM 46.1692 -1.1752 103° East  Level FlightAware Approximate
Sat 06:23:00 AM 46.1375 -0.9754 103° East  Level FlightAware Approximate
Sat 06:24:00 AM 46.1054 -0.7758 103° East  Level FlightAware Approximate
Sat 06:25:00 AM 46.0730 -0.5764 103° East  Level FlightAware Approximate
Sat 06:25:46 AM 45.8310 -0.6100 103° East 506 582 33,000  Level FlightAware ADS-B
Sat 06:26:25 AM 45.8160 -0.4780 99° East 506 582 33,000  Level FlightAware ADS-B
Sat 06:27:10 AM 45.7990 -0.3290 99° East 506 582 33,000  Level FlightAware ADS-B
Sat 06:27:50 AM 45.7840 -0.1970 99° East 504 580 33,000  Level FlightAware ADS-B
Sat 06:28:35 AM 45.7670 -0.0490 99° East 505 581 33,000  Level FlightAware ADS-B
Sat 06:29:14 AM 45.7520 0.0830 99° East 505 581 33,000  Level FlightAware ADS-B
Sat 06:29:54 AM 45.7360 0.2110 100° East 507 583 33,000  Level FlightAware ADS-B
Sat 06:30:35 AM 45.7210 0.3440 99° East 507 583 33,000  Level FlightAware ADS-B
Sat 06:31:14 AM 45.7040 0.4790 100° East 507 583 33,000  Level FlightAware ADS-B
Sat 06:32:00 AM 45.6860 0.6280 100° East 506 582 33,000  Level FlightAware ADS-B
Sat 06:32:40 AM 45.6700 0.7560 100° East 507 583 33,000  Level FlightAware ADS-B
Sat 06:33:51 AM 45.6410 0.9910 100° East 507 583 33,000  Level FlightAware ADS-B
Sat 06:35:05 AM 45.6180 1.1990 99° East 507 583 33,000  Level FlightAware ADS-B
Sat 06:36:09 AM 45.5810 1.4570 101° East 510 587 33,000  Level FlightAware ADS-B
Sat 06:37:09 AM 45.5550 1.6520 101° East 510 587 33,000  Level FlightAware ADS-B
Sat 06:37:53 AM 45.5360 1.7970 101° East 508 585 33,000  Level FlightAware ADS-B
Sat 06:38:37 AM 45.5160 1.9450 101° East 510 587 33,000  Level FlightAware ADS-B
Sat 06:39:16 AM 45.4990 2.0710 101° East 511 588 33,000  Level FlightAware ADS-B
Sat 06:39:57 AM 45.4810 2.2090 100° East 510 587 33,000  Level FlightAware ADS-B
Sat 06:40:57 AM 45.4530 2.4070 101° East 512 589 33,000  Level FlightAware ADS-B
Sat 06:42:42 AM 45.4040 2.7510 101° East 514 592 33,000  Level FlightAware ADS-B
Sat 06:43:30 AM 45.3810 2.9130 101° East 513 590 33,000  Level FlightAware ADS-B
Sat 06:44:10 AM 45.3630 3.0390 101° East 515 593 33,000  Level FlightAware ADS-B
Sat 06:44:54 AM 45.3410 3.1880 102° East 516 594 33,000  Level FlightAware ADS-B
Sat 06:45:32 AM 45.3230 3.3140 101° East 514 592 33,000  Level FlightAware ADS-B
Sat 06:46:18 AM 45.3000 3.4690 102° East 516 594 33,000  Level FlightAware ADS-B
Sat 06:46:58 AM 45.2770 3.5980 104° East 522 601 33,000  Level FlightAware ADS-B
Sat 06:47:42 AM 45.2330 3.7360 114° Southeast 526 605 33,000  Level FlightAware ADS-B
Sat 06:48:26 AM 45.1820 3.8660 119° Southeast 529 609 33,000  Level FlightAware ADS-B
Sat 06:49:02 AM 45.1370 3.9770 120° Southeast 530 610 33,000  Level FlightAware ADS-B
Sat 06:49:46 AM 45.0830 4.1130 119° Southeast 529 609 33,000  Level FlightAware ADS-B
Sat 06:50:26 AM 45.0360 4.2300 120° Southeast 528 608 33,000  Level FlightAware ADS-B
Sat 06:51:10 AM 44.9830 4.3660 119° Southeast 528 608 33,000  Level FlightAware ADS-B
Sat 06:51:52 AM 44.9340 4.4890 119° Southeast 529 609 33,000  Level FlightAware ADS-B
Sat 06:52:38 AM 44.8790 4.6270 119° Southeast 528 608 33,000  Level FlightAware ADS-B
Sat 06:53:18 AM 44.8280 4.7500 120° Southeast 530 610 33,000  Level FlightAware ADS-B
Sat 06:54:00 AM 44.7770 4.8760 120° Southeast 532 612 33,000  Level FlightAware ADS-B
Sat 06:54:44 AM 44.7230 5.0080 120° Southeast 532 612 33,000  Level FlightAware ADS-B
Sat 06:55:23 AM 44.6740 5.1200 122° Southeast 535 616 33,000  Level FlightAware ADS-B
Sat 06:56:16 AM 44.6000 5.2760 124° Southeast 538 619 33,000  Level FlightAware ADS-B
Sat 06:57:00 AM 44.5350 5.4000 126° Southeast 538 619 33,000  Level FlightAware ADS-B
Sat 06:57:44 AM 44.4720 5.5220 126° Southeast 539 620 33,000  Level FlightAware ADS-B
Sat 06:58:22 AM 44.4160 5.6290 126° Southeast 540 621 33,000  Level FlightAware ADS-B
Sat 06:59:04 AM 44.3550 5.7480 126° Southeast 542 624 33,000  Level FlightAware ADS-B
Sat 07:00:34 AM 44.2240 6.0040 125° Southeast 539 620 33,000  Level FlightAware ADS-B
Sat 07:00:58 AM 44.1910 6.0680 126° Southeast 539 620 33,000  Level FlightAware ADS-B
Sat 07:01:43 AM 44.1230 6.1980 126° Southeast 541 623 33,000 750 Level FlightAware ADS-B
Sat 07:02:26 AM 44.0580 6.3220 126° Southeast 541 623 34,100 1,571 Climbing FlightAware ADS-B
Sat 07:03:07 AM 43.9980 6.4330 127° Southeast 538 619 35,200 1,610 Climbing FlightAware ADS-B
Sat 07:03:48 AM 43.9400 6.5450 126° Southeast 535 616 36,300 1,333 Climbing FlightAware ADS-B
Sat 07:04:28 AM 43.8790 6.6580 127° Southeast 536 617 37,000 525 Climbing FlightAware ADS-B
Sat 07:05:08 AM 43.8210 6.7680 126° Southeast 537 618 37,000  Level FlightAware ADS-B
Sat 07:05:48 AM 43.7610 6.8820 126° Southeast 535 616 37,000  Level FlightAware ADS-B
Sat 07:06:34 AM 43.7000 7.0100 123° Southeast 532 612 37,000  Level FlightAware ADS-B
Sat 07:07:18 AM 43.6450 7.1390 120° Southeast 531 611 37,000  Level FlightAware ADS-B
Sat 07:08:00 AM 43.5910 7.2630 121° Southeast 531 611 37,000  Level FlightAware ADS-B
Sat 07:08:36 AM 43.5460 7.3640 122° Southeast 531 611 37,000  Level FlightAware ADS-B
Sat 07:09:24 AM 43.4850 7.5000 122° Southeast 532 612 37,000  Level FlightAware ADS-B
Sat 07:10:01 AM 43.4370 7.6060 122° Southeast 532 612 37,000  Level FlightAware ADS-B
Sat 07:10:43 AM 43.3820 7.7300 121° Southeast 531 611 37,000  Level FlightAware ADS-B
Sat 07:12:00 AM 43.2830 7.9480 122° Southeast 532 612 37,000  Level FlightAware ADS-B
Sat 07:12:40 AM 43.2320 8.0590 122° Southeast 531 611 37,000  Level FlightAware ADS-B
Sat 07:15:00 AM 43.1228 8.4888 109° East  Level Estimated
Sat 07:16:00 AM 43.0755 8.6726 109° East  Level Estimated
Sat 07:17:00 AM 43.0280 8.8560 109° East  Level Estimated
Sat 07:18:00 AM 42.9801 9.0392 110° East  Level Estimated
Sat 07:19:00 AM 42.9319 9.2221 110° East  Level Estimated
Sat 07:20:00 AM 42.8835 9.4047 110° East  Level Estimated
Sat 07:21:00 AM 42.8347 9.5870 110° East  Level Estimated
Sat 07:22:00 AM 42.7857 9.7690 110° East  Level Estimated
Sat 07:23:00 AM 42.7364 9.9508 110° East  Level Estimated
Sat 07:24:00 AM 42.6868 10.1322 110° East  Level Estimated
Sat 07:25:00 AM 42.6369 10.3133 110° East  Level Estimated
Sat 07:26:00 AM 42.5867 10.4942 111° Southeast  Level Estimated
Sat 07:27:00 AM 42.5363 10.6748 111° Southeast  Level Estimated
Sat 07:28:00 AM 42.4855 10.8551 111° Southeast  Level Estimated
Sat 07:29:00 AM 42.4345 11.0350 111° Southeast  Level Estimated
Sat 07:30:00 AM 42.3832 11.2147 111° Southeast  Level Estimated
Sat 07:31:00 AM 42.3316 11.3941 111° Southeast  Level Estimated
Sat 07:32:00 AM 42.2798 11.5732 111° Southeast  Level Estimated
Sat 07:33:00 AM 42.2276 11.7520 111° Southeast  Level Estimated
Sat 07:34:00 AM 42.1752 11.9305 112° Southeast  Level Estimated
Sat 07:35:00 AM 42.1225 12.1088 112° Southeast  Level Estimated
Sat 07:36:00 AM 42.0695 12.2867 112° Southeast  Level Estimated
Sat 07:37:00 AM 42.0163 12.4643 112° Southeast  Level Estimated
Sat 07:38:00 AM 41.9628 12.6416 112° Southeast  Level Estimated
Sat 07:39:00 AM 41.9090 12.8187 112° Southeast  Level Estimated
Sat 07:40:00 AM 41.8549 12.9954 112° Southeast  Level Estimated
Sat 07:41:00 AM 41.8006 13.1718 112° Southeast  Level Estimated
Sat 07:42:00 AM 41.7460 13.3479 113° Southeast  Level Estimated
Sat 07:43:00 AM 41.6911 13.5238 113° Southeast  Level Estimated
Sat 07:44:00 AM 41.6360 13.6993 113° Southeast  Level Estimated
Sat 07:45:00 AM 41.5806 13.8745 113° Southeast  Level Estimated
Sat 07:46:00 AM 41.5249 14.0494 113° Southeast  Level Estimated
Sat 07:47:00 AM 41.4690 14.2241 113° Southeast  Level Estimated
Sat 07:48:00 AM 41.4128 14.3984 113° Southeast  Level Estimated
Sat 07:49:00 AM 41.3563 14.5724 113° Southeast  Level Estimated
Sat 07:50:00 AM 41.2996 14.7461 113° Southeast  Level Estimated
Sat 07:51:00 AM 41.2426 14.9195 114° Southeast  Level Estimated
Sat 07:52:00 AM 41.1854 15.0927 114° Southeast  Level Estimated
Sat 07:53:00 AM 41.1279 15.2655 114° Southeast  Level Estimated
Sat 07:54:00 AM 41.0701 15.4380 114° Southeast  Level Estimated
Sat 07:55:00 AM 41.0121 15.6102 114° Southeast  Level Estimated
Sat 07:56:00 AM 40.9538 15.7821 114° Southeast  Level Estimated
Sat 07:57:00 AM 40.8953 15.9537 114° Southeast  Level Estimated
Sat 07:58:00 AM 40.8365 16.1249 114° Southeast  Level Estimated
Sat 07:59:00 AM 40.7775 16.2959 114° Southeast  Level Estimated
Sat 08:00:00 AM 40.7182 16.4666 115° Southeast  Level Estimated
Sat 08:01:00 AM 40.6587 16.6370 115° Southeast  Level Estimated
Sat 08:02:00 AM 40.5989 16.8071 115° Southeast  Level Estimated
Sat 08:03:00 AM 40.5388 16.9768 115° Southeast  Level Estimated
Sat 08:04:00 AM 40.4786 17.1463 115° Southeast  Level Estimated
Sat 08:05:00 AM 40.4180 17.3155 115° Southeast  Level Estimated
Sat 08:06:00 AM 40.3573 17.4843 115° Southeast  Level Estimated
Sat 08:07:00 AM 40.2962 17.6528 115° Southeast  Level Estimated
Sat 08:08:00 AM 40.2350 17.8211 115° Southeast  Level Estimated
Sat 08:09:00 AM 40.1735 17.9890 116° Southeast  Level Estimated
Sat 08:10:00 AM 40.1117 18.1567 116° Southeast  Level Estimated
Sat 08:11:00 AM 40.0497 18.3240 116° Southeast  Level Estimated
Sat 08:12:00 AM 39.9875 18.4910 116° Southeast  Level Estimated
Sat 08:13:00 AM 39.9250 18.6577 116° Southeast  Level Estimated
Sat 08:14:00 AM 39.8623 18.8242 116° Southeast  Level Estimated
Sat 08:15:00 AM 39.7994 18.9903 116° Southeast  Level Estimated
Sat 08:16:00 AM 39.7362 19.1561 116° Southeast  Level Estimated
Sat 08:17:00 AM 39.6727 19.3216 116° Southeast  Level Estimated
Sat 08:18:00 AM 39.6091 19.4868 117° Southeast  Level Estimated
Sat 08:19:00 AM 39.5452 19.6517 117° Southeast  Level Estimated
Sat 08:20:00 AM 39.4811 19.8163 117° Southeast  Level Estimated
Sat 08:21:00 AM 39.4167 19.9806 117° Southeast  Level Estimated
Sat 08:22:00 AM 39.3522 20.1446 117° Southeast  Level Estimated
Sat 08:23:00 AM 39.2873 20.3082 117° Southeast  Level Estimated
Sat 08:24:00 AM 39.2223 20.4716 117° Southeast  Level Estimated
Sat 08:25:00 AM 39.1570 20.6347 117° Southeast  Level Estimated
Sat 08:26:00 AM 39.0915 20.7974 117° Southeast  Level Estimated
Sat 08:27:00 AM 39.0258 20.9599 117° Southeast  Level Estimated
Sat 08:28:00 AM 38.9599 21.1221 118° Southeast  Level Estimated
Sat 08:29:00 AM 38.8937 21.2840 118° Southeast  Level Estimated
Sat 08:30:00 AM 38.8273 21.4455 118° Southeast  Level Estimated
Sat 08:31:00 AM 38.7607 21.6068 118° Southeast  Level Estimated
Sat 08:32:00 AM 38.6939 21.7677 118° Southeast  Level Estimated
Sat 08:33:00 AM 38.6268 21.9284 118° Southeast  Level Estimated
Sat 08:34:00 AM 38.5595 22.0888 118° Southeast  Level Estimated
Sat 08:35:00 AM 38.4920 22.2488 118° Southeast  Level Estimated
Sat 08:36:00 AM 38.4243 22.4086 118° Southeast  Level Estimated
Sat 08:37:00 AM 38.3564 22.5680 118° Southeast  Level Estimated
Sat 08:38:00 AM 38.2882 22.7272 119° Southeast  Level Estimated
Sat 08:39:00 AM 38.2199 22.8860 119° Southeast  Level Estimated
Sat 08:40:00 AM 38.1513 23.0446 119° Southeast  Level Estimated
Sat 08:41:00 AM 38.0825 23.2029 119° Southeast  Level Estimated
Sat 08:42:00 AM 38.0135 23.3608 119° Southeast  Level Estimated
Sat 08:43:00 AM 37.9443 23.5185 119° Southeast  Level Estimated
Sat 08:44:00 AM 37.8749 23.6759 119° Southeast  Level Estimated
Sat 08:45:00 AM 37.8053 23.8329 119° Southeast  Level Estimated
Sat 08:46:00 AM 37.7354 23.9897 119° Southeast  Level Estimated
Sat 08:47:00 AM 37.6654 24.1462 119° Southeast  Level Estimated
Sat 08:48:00 AM 37.5951 24.3024 120° Southeast  Level Estimated
Sat 08:49:00 AM 37.5247 24.4583 120° Southeast  Level Estimated
Sat 08:50:00 AM 37.4540 24.6139 120° Southeast  Level Estimated
Sat 08:51:00 AM 37.3832 24.7692 120° Southeast  Level Estimated
Sat 08:52:00 AM 37.3121 24.9242 120° Southeast  Level Estimated
Sat 08:53:00 AM 37.2408 25.0789 120° Southeast  Level Estimated
Sat 08:54:00 AM 37.1693 25.2333 120° Southeast  Level Estimated
Sat 08:55:00 AM 37.0977 25.3874 120° Southeast  Level Estimated
Sat 08:56:00 AM 37.0258 25.5413 120° Southeast  Level Estimated
Sat 08:57:00 AM 36.9538 25.6948 120° Southeast  Level Estimated
Sat 08:58:00 AM 36.8815 25.8481 120° Southeast  Level Estimated
Sat 08:59:00 AM 36.8090 26.0011 121° Southeast  Level Estimated
Sat 09:00:00 AM 36.7364 26.1537 121° Southeast  Level Estimated
Sat 09:01:00 AM 36.6635 26.3061 121° Southeast  Level Estimated
Sat 09:02:00 AM 36.5905 26.4582 121° Southeast  Level Estimated
Sat 09:03:00 AM 36.5173 26.6101 121° Southeast  Level Estimated
Sat 09:04:00 AM 36.4438 26.7616 121° Southeast  Level Estimated
Sat 09:05:00 AM 36.3702 26.9128 121° Southeast  Level Estimated
Sat 09:06:00 AM 36.2964 27.0638 121° Southeast  Level Estimated
Sat 09:07:00 AM 36.2224 27.2144 121° Southeast  Level Estimated
Sat 09:08:00 AM 36.1482 27.3648 121° Southeast  Level Estimated
Sat 09:09:00 AM 36.0738 27.5149 121° Southeast  Level Estimated
Sat 09:10:00 AM 35.9993 27.6647 122° Southeast  Level Estimated
Sat 09:11:00 AM 35.9245 27.8142 122° Southeast  Level Estimated
Sat 09:12:00 AM 35.8496 27.9635 122° Southeast  Level Estimated
Sat 09:13:00 AM 35.7745 28.1124 122° Southeast  Level Estimated
Sat 09:14:00 AM 35.6992 28.2611 122° Southeast  Level Estimated
Sat 09:15:00 AM 35.6237 28.4095 122° Southeast  Level Estimated
Sat 09:16:00 AM 35.5480 28.5576 122° Southeast  Level Estimated
Sat 09:17:00 AM 35.4722 28.7055 122° Southeast  Level Estimated
Sat 09:18:00 AM 35.3962 28.8530 122° Southeast  Level Estimated
Sat 09:19:00 AM 35.3200 29.0003 122° Southeast  Level Estimated
Sat 09:20:00 AM 35.2436 29.1473 122° Southeast  Level Estimated
Sat 09:21:00 AM 35.1670 29.2940 123° Southeast  Level Estimated
Sat 09:22:00 AM 35.0903 29.4405 123° Southeast  Level Estimated
Sat 09:23:00 AM 35.0134 29.5867 123° Southeast  Level Estimated
Sat 09:24:00 AM 34.9363 29.7326 123° Southeast  Level Estimated
Sat 09:25:00 AM 34.8590 29.8782 123° Southeast  Level Estimated
Sat 09:26:00 AM 34.7816 30.0236 123° Southeast  Level Estimated
Sat 09:27:00 AM 34.7040 30.1686 123° Southeast  Level Estimated
Sat 09:28:00 AM 34.6262 30.3134 123° Southeast  Level Estimated
Sat 09:29:00 AM 34.5483 30.4580 123° Southeast  Level Estimated
Sat 09:30:00 AM 34.4701 30.6022 123° Southeast  Level Estimated
Sat 09:31:00 AM 34.3920 30.7460 123° Southeast  Level Estimated
Sat 09:32:00 AM 34.3137 30.8895 123° Southeast  Level Estimated
Sat 09:33:00 AM 34.2352 31.0327 124° Southeast  Level Estimated
Sat 09:34:00 AM 34.1565 31.1756 124° Southeast  Level Estimated
Sat 09:35:00 AM 34.0777 31.3183 124° Southeast  Level Estimated
Sat 09:36:00 AM 33.9987 31.4607 124° Southeast  Level Estimated
Sat 09:37:00 AM 33.9196 31.6029 124° Southeast  Level Estimated
Sat 09:38:00 AM 33.8402 31.7448 124° Southeast  Level Estimated
Sat 09:39:00 AM 33.7608 31.8864 124° Southeast  Level Estimated
Sat 09:40:00 AM 33.6811 32.0277 124° Southeast  Level Estimated
Sat 09:41:00 AM 33.6013 32.1688 124° Southeast  Level Estimated
Sat 09:42:00 AM 33.5214 32.3097 124° Southeast  Level Estimated
Sat 09:43:00 AM 33.4413 32.4503 124° Southeast  Level Estimated
Sat 09:44:00 AM 33.3610 32.5906 124° Southeast  Level Estimated
Sat 09:45:00 AM 33.2806 32.7307 124° Southeast  Level Estimated
Sat 09:46:00 AM 33.2000 32.8704 125° Southeast  Level Estimated
Sat 09:47:00 AM 33.1192 33.0100 125° Southeast  Level Estimated
Sat 09:48:00 AM 33.0383 33.1493 125° Southeast  Level Estimated
Sat 09:49:00 AM 32.9573 33.2883 125° Southeast  Level Estimated
Sat 09:50:00 AM 32.8761 33.4271 125° Southeast  Level Estimated
Sat 09:51:00 AM 32.7947 33.5656 125° Southeast  Level Estimated
Sat 09:52:00 AM 32.7132 33.7039 125° Southeast  Level Estimated
Sat 09:53:00 AM 32.6315 33.8419 125° Southeast  Level Estimated
Sat 09:54:00 AM 32.5497 33.9796 125° Southeast  Level Estimated
Sat 09:55:00 AM 32.4678 34.1171 125° Southeast  Level Estimated
Sat 09:56:00 AM 32.3857 34.2544 125° Southeast  Level Estimated
Sat 09:57:00 AM 32.3034 34.3914 125° Southeast  Level Estimated
Sat 09:58:00 AM 32.2210 34.5282 125° Southeast  Level Estimated
Sat 09:59:00 AM 32.1384 34.6647 126° Southeast  Level Estimated
Sat 10:00:00 AM 32.0557 34.8009 126° Southeast  Level Estimated
Sat 10:01:00 AM 32.0095 34.8769 126° Southeast  Level Estimated
Sat 10:02:00 AM 32.0095 34.8769 270° West  Level Estimated
Sat 10:03:00 AM 32.0095 34.8769 270° West  Level Estimated
Sat 10:04:00 AM 32.0095 34.8769 270° West  Level Estimated
Sat 10:05:00 AM 32.0095 34.8769 270° West  Level Estimated
Sat 10:06:00 AM 32.0095 34.8769 270° West  Level Estimated

Login

Don't have an account? Register now (free) for customized features, flight alerts, and more!